sensor_id;sensor_type;location;lat;lon;timestamp;pressure;altitude;pressure_sealevel;temperature
37414;BMP280;23279;46.472;30.760;2023-05-09T00:02:07;79059.69;;;-146.33
37414;BMP280;23279;46.472;30.760;2023-05-09T00:04:32;79071.91;;;-146.33
37414;BMP280;23279;46.472;30.760;2023-05-09T00:06:59;79069.88;;;-146.33
37414;BMP280;23279;46.472;30.760;2023-05-09T00:09:25;79065.81;;;-146.33
37414;BMP280;23279;46.472;30.760;2023-05-09T00:11:50;79073.94;;;-146.33
37414;BMP280;23279;46.472;30.760;2023-05-09T00:14:15;79086.16;;;-146.33
37414;BMP280;23279;46.472;30.760;2023-05-09T00:16:45;79073.94;;;-146.33
37414;BMP280;23279;46.472;30.760;2023-05-09T00:19:11;79065.81;;;-146.33
37414;BMP280;23279;46.472;30.760;2023-05-09T00:21:37;79069.88;;;-146.33
37414;BMP280;23279;46.472;30.760;2023-05-09T00:24:03;79049.53;;;-146.33
37414;BMP280;23279;46.472;30.760;2023-05-09T00:26:28;79045.44;;;-146.33
37414;BMP280;23279;46.472;30.760;2023-05-09T00:28:54;79051.56;;;-146.33
37414;BMP280;23279;46.472;30.760;2023-05-09T00:31:20;79053.59;;;-146.33
37414;BMP280;23279;46.472;30.760;2023-05-09T00:33:45;79057.66;;;-146.33
37414;BMP280;23279;46.472;30.760;2023-05-09T00:36:11;79059.69;;;-146.33
37414;BMP280;23279;46.472;30.760;2023-05-09T00:38:36;79055.63;;;-146.33
37414;BMP280;23279;46.472;30.760;2023-05-09T00:41:02;79029.16;;;-146.33
37414;BMP280;23279;46.472;30.760;2023-05-09T00:43:28;79018.97;;;-146.33
37414;BMP280;23279;46.472;30.760;2023-05-09T00:45:54;78984.38;;;-146.33
37414;BMP280;23279;46.472;30.760;2023-05-09T00:48:20;78953.84;;;-146.33
37414;BMP280;23279;46.472;30.760;2023-05-09T00:50:45;78923.31;;;-146.33
37414;BMP280;23279;46.472;30.760;2023-05-09T00:53:13;78884.63;;;-146.33
37414;BMP280;23279;46.472;30.760;2023-05-09T00:55:39;78856.13;;;-146.33
37414;BMP280;23279;46.472;30.760;2023-05-09T00:58:04;78843.94;;;-146.33
37414;BMP280;23279;46.472;30.760;2023-05-09T01:00:30;78829.69;;;-146.33
37414;BMP280;23279;46.472;30.760;2023-05-09T01:02:56;78870.38;;;-146.33
37414;BMP280;23279;46.472;30.760;2023-05-09T01:05:29;78852.06;;;-146.33
37414;BMP280;23279;46.472;30.760;2023-05-09T01:08:06;78923.31;;;-146.33
37414;BMP280;23279;46.472;30.760;2023-05-09T01:11:10;79014.91;;;-146.33
37414;BMP280;23279;46.472;30.760;2023-05-09T01:16:37;79073.94;;;-146.33
37414;BMP280;23279;46.472;30.760;2023-05-09T01:21:45;79118.72;;;-146.33
37414;BMP280;23279;46.472;30.760;2023-05-09T01:29:57;79132.97;;;-146.33
37414;BMP280;23279;46.472;30.760;2023-05-09T01:32:26;79122.81;;;-146.33
37414;BMP280;23279;46.472;30.760;2023-05-09T01:34:54;79112.63;;;-146.33
37414;BMP280;23279;46.472;30.760;2023-05-09T01:37:25;79082.09;;;-146.33
37414;BMP280;23279;46.472;30.760;2023-05-09T01:39:52;79063.78;;;-146.33
37414;BMP280;23279;46.472;30.760;2023-05-09T01:42:20;79033.22;;;-146.33
37414;BMP280;23279;46.472;30.760;2023-05-09T01:44:47;79025.09;;;-146.33
37414;BMP280;23279;46.472;30.760;2023-05-09T01:47:14;78998.63;;;-146.33
37414;BMP280;23279;46.472;30.760;2023-05-09T01:49:41;78984.38;;;-146.33
37414;BMP280;23279;46.472;30.760;2023-05-09T01:52:10;78966.06;;;-146.33
37414;BMP280;23279;46.472;30.760;2023-05-09T01:54:38;78911.09;;;-146.33
37414;BMP280;23279;46.472;30.760;2023-05-09T01:57:06;78854.09;;;-146.33
37414;BMP280;23279;46.472;30.760;2023-05-09T01:59:32;78870.38;;;-146.33
37414;BMP280;23279;46.472;30.760;2023-05-09T02:01:59;78837.81;;;-146.33
37414;BMP280;23279;46.472;30.760;2023-05-09T02:04:26;78803.22;;;-146.33
37414;BMP280;23279;46.472;30.760;2023-05-09T02:06:53;78803.22;;;-146.33
37414;BMP280;23279;46.472;30.760;2023-05-09T02:09:19;78823.56;;;-146.33
37414;BMP280;23279;46.472;30.760;2023-05-09T02:11:45;78829.69;;;-146.33
37414;BMP280;23279;46.472;30.760;2023-05-09T02:14:11;78819.50;;;-146.33
37414;BMP280;23279;46.472;30.760;2023-05-09T02:16:37;78827.66;;;-146.33
37414;BMP280;23279;46.472;30.760;2023-05-09T02:19:04;78848.00;;;-146.33
37414;BMP280;23279;46.472;30.760;2023-05-09T02:21:29;78850.03;;;-146.33
37414;BMP280;23279;46.472;30.760;2023-05-09T02:23:55;78872.44;;;-146.33
37414;BMP280;23279;46.472;30.760;2023-05-09T02:26:21;78905.00;;;-146.33
37414;BMP280;23279;46.472;30.760;2023-05-09T02:28:47;78866.31;;;-146.33
37414;BMP280;23279;46.472;30.760;2023-05-09T02:31:15;78837.81;;;-146.33
37414;BMP280;23279;46.472;30.760;2023-05-09T02:33:43;78801.19;;;-146.33
37414;BMP280;23279;46.472;30.760;2023-05-09T02:36:09;78742.16;;;-146.33
37414;BMP280;23279;46.472;30.760;2023-05-09T02:38:35;78672.94;;;-146.33
37414;BMP280;23279;46.472;30.760;2023-05-09T02:41:00;78662.78;;;-146.33
37414;BMP280;23279;46.472;30.760;2023-05-09T02:43:25;78656.66;;;-146.33
37414;BMP280;23279;46.472;30.760;2023-05-09T02:45:51;78626.13;;;-146.33
37414;BMP280;23279;46.472;30.760;2023-05-09T02:48:16;78581.34;;;-146.33
37414;BMP280;23279;46.472;30.760;2023-05-09T02:50:42;78526.41;;;-146.33
37414;BMP280;23279;46.472;30.760;2023-05-09T02:53:08;78477.56;;;-146.33
37414;BMP280;23279;46.472;30.760;2023-05-09T02:55:34;78485.69;;;-146.33
37414;BMP280;23279;46.472;30.760;2023-05-09T02:57:59;78479.59;;;-146.33
37414;BMP280;23279;46.472;30.760;2023-05-09T03:00:25;78520.31;;;-146.33
37414;BMP280;23279;46.472;30.760;2023-05-09T03:02:51;78487.72;;;-146.33
37414;BMP280;23279;46.472;30.760;2023-05-09T03:05:16;78542.69;;;-146.33
37414;BMP280;23279;46.472;30.760;2023-05-09T03:07:42;78540.66;;;-146.33
37414;BMP280;23279;46.472;30.760;2023-05-09T03:10:09;78518.25;;;-146.33
37414;BMP280;23279;46.472;30.760;2023-05-09T03:12:38;78477.56;;;-146.33
37414;BMP280;23279;46.472;30.760;2023-05-09T03:15:07;78447.03;;;-146.33
37414;BMP280;23279;46.472;30.760;2023-05-09T03:17:33;78420.56;;;-146.33
37414;BMP280;23279;46.472;30.760;2023-05-09T03:19:58;78451.09;;;-146.33
37414;BMP280;23279;46.472;30.760;2023-05-09T03:22:23;78471.44;;;-146.33
37414;BMP280;23279;46.472;30.760;2023-05-09T03:24:49;78481.63;;;-146.33
37414;BMP280;23279;46.472;30.760;2023-05-09T03:27:14;78449.06;;;-146.33
37414;BMP280;23279;46.472;30.760;2023-05-09T03:29:40;78416.50;;;-146.33
37414;BMP280;23279;46.472;30.760;2023-05-09T03:32:05;78426.69;;;-146.33
37414;BMP280;23279;46.472;30.760;2023-05-09T03:34:31;78465.34;;;-146.33
37414;BMP280;23279;46.472;30.760;2023-05-09T03:36:56;78565.06;;;-146.33
37414;BMP280;23279;46.472;30.760;2023-05-09T03:39:21;78670.91;;;-146.33
37414;BMP280;23279;46.472;30.760;2023-05-09T03:41:47;78825.59;;;-146.33
37414;BMP280;23279;46.472;30.760;2023-05-09T03:44:13;78915.16;;;-146.33
37414;BMP280;23279;46.472;30.760;2023-05-09T03:46:38;78996.59;;;-146.33
37414;BMP280;23279;46.472;30.760;2023-05-09T03:49:04;79084.13;;;-146.33
37414;BMP280;23279;46.472;30.760;2023-05-09T03:51:29;79116.69;;;-146.33
37414;BMP280;23279;46.472;30.760;2023-05-09T03:53:55;79130.94;;;-146.33
37414;BMP280;23279;46.472;30.760;2023-05-09T03:56:20;79135.00;;;-146.33
37414;BMP280;23279;46.472;30.760;2023-05-09T03:58:46;79124.84;;;-146.33
37414;BMP280;23279;46.472;30.760;2023-05-09T04:01:12;79141.13;;;-146.33
37414;BMP280;23279;46.472;30.760;2023-05-09T04:03:38;79163.50;;;-146.33
37414;BMP280;23279;46.472;30.760;2023-05-09T04:06:04;79165.56;;;-146.33
37414;BMP280;23279;46.472;30.760;2023-05-09T04:08:30;79151.31;;;-146.33
37414;BMP280;23279;46.472;30.760;2023-05-09T04:10:56;79143.16;;;-146.33
37414;BMP280;23279;46.472;30.760;2023-05-09T04:13:22;79155.38;;;-146.33
37414;BMP280;23279;46.472;30.760;2023-05-09T04:15:47;79167.59;;;-146.33
37414;BMP280;23279;46.472;30.760;2023-05-09T04:18:13;79177.75;;;-146.33
37414;BMP280;23279;46.472;30.760;2023-05-09T04:20:38;79165.56;;;-146.33
37414;BMP280;23279;46.472;30.760;2023-05-09T04:23:03;79167.59;;;-146.33
37414;BMP280;23279;46.472;30.760;2023-05-09T04:25:29;79175.72;;;-146.33
37414;BMP280;23279;46.472;30.760;2023-05-09T04:27:58;79167.59;;;-146.33
37414;BMP280;23279;46.472;30.760;2023-05-09T04:30:24;79155.38;;;-146.33
37414;BMP280;23279;46.472;30.760;2023-05-09T04:32:51;79139.09;;;-146.33
37414;BMP280;23279;46.472;30.760;2023-05-09T04:35:17;79114.66;;;-146.33
37414;BMP280;23279;46.472;30.760;2023-05-09T04:37:43;79126.88;;;-146.33
37414;BMP280;23279;46.472;30.760;2023-05-09T04:40:09;79120.75;;;-146.33
37414;BMP280;23279;46.472;30.760;2023-05-09T04:42:34;79130.94;;;-146.33
37414;BMP280;23279;46.472;30.760;2023-05-09T04:45:00;79135.00;;;-146.33
37414;BMP280;23279;46.472;30.760;2023-05-09T04:47:26;79122.81;;;-146.33
37414;BMP280;23279;46.472;30.760;2023-05-09T04:49:51;79132.97;;;-146.33
37414;BMP280;23279;46.472;30.760;2023-05-09T04:52:17;79130.94;;;-146.33
37414;BMP280;23279;46.472;30.760;2023-05-09T04:54:42;79112.63;;;-146.33
37414;BMP280;23279;46.472;30.760;2023-05-09T04:57:08;79110.59;;;-146.33
37414;BMP280;23279;46.472;30.760;2023-05-09T04:59:34;79116.69;;;-146.33
37414;BMP280;23279;46.472;30.760;2023-05-09T05:01:59;79094.31;;;-146.33
37414;BMP280;23279;46.472;30.760;2023-05-09T05:04:25;79082.09;;;-146.33
37414;BMP280;23279;46.472;30.760;2023-05-09T05:06:50;79088.19;;;-146.33
37414;BMP280;23279;46.472;30.760;2023-05-09T05:09:16;79078.03;;;-146.33
37414;BMP280;23279;46.472;30.760;2023-05-09T05:11:41;79090.22;;;-146.33
37414;BMP280;23279;46.472;30.760;2023-05-09T05:14:07;79078.03;;;-146.33
37414;BMP280;23279;46.472;30.760;2023-05-09T05:16:32;79039.34;;;-146.33
37414;BMP280;23279;46.472;30.760;2023-05-09T05:18:57;79033.22;;;-146.33
37414;BMP280;23279;46.472;30.760;2023-05-09T05:21:23;79014.91;;;-146.33
37414;BMP280;23279;46.472;30.760;2023-05-09T05:23:48;79031.19;;;-146.33
37414;BMP280;23279;46.472;30.760;2023-05-09T05:26:14;79031.19;;;-146.33
37414;BMP280;23279;46.472;30.760;2023-05-09T05:28:39;79031.19;;;-146.33
37414;BMP280;23279;46.472;30.760;2023-05-09T05:31:05;79010.84;;;-146.33
37414;BMP280;23279;46.472;30.760;2023-05-09T05:33:30;79014.91;;;-146.33
37414;BMP280;23279;46.472;30.760;2023-05-09T05:35:55;79004.75;;;-146.33
37414;BMP280;23279;46.472;30.760;2023-05-09T05:38:21;79006.78;;;-146.33
37414;BMP280;23279;46.472;30.760;2023-05-09T05:40:46;78990.50;;;-146.33
37414;BMP280;23279;46.472;30.760;2023-05-09T05:43:12;78994.56;;;-146.33
37414;BMP280;23279;46.472;30.760;2023-05-09T05:45:37;79010.84;;;-146.33
37414;BMP280;23279;46.472;30.760;2023-05-09T05:48:03;78990.50;;;-146.33
37414;BMP280;23279;46.472;30.760;2023-05-09T05:50:28;79002.69;;;-146.33
37414;BMP280;23279;46.472;30.760;2023-05-09T05:52:53;79004.75;;;-146.33
37414;BMP280;23279;46.472;30.760;2023-05-09T05:55:19;78994.56;;;-146.33
37414;BMP280;23279;46.472;30.760;2023-05-09T05:57:44;78984.38;;;-146.33
37414;BMP280;23279;46.472;30.760;2023-05-09T06:00:12;78984.38;;;-146.33
37414;BMP280;23279;46.472;30.760;2023-05-09T06:02:41;78966.06;;;-146.33
37414;BMP280;23279;46.472;30.760;2023-05-09T06:05:08;78992.53;;;-146.33
37414;BMP280;23279;46.472;30.760;2023-05-09T06:07:33;78988.44;;;-146.33
37414;BMP280;23279;46.472;30.760;2023-05-09T06:09:59;79016.94;;;-146.33
37414;BMP280;23279;46.472;30.760;2023-05-09T06:12:24;79014.91;;;-146.33
37414;BMP280;23279;46.472;30.760;2023-05-09T06:14:49;79031.19;;;-146.33
37414;BMP280;23279;46.472;30.760;2023-05-09T06:17:15;79027.13;;;-146.33
37414;BMP280;23279;46.472;30.760;2023-05-09T06:19:40;78986.41;;;-146.33
37414;BMP280;23279;46.472;30.760;2023-05-09T06:22:06;78968.09;;;-146.33
37414;BMP280;23279;46.472;30.760;2023-05-09T06:24:31;78955.88;;;-146.33
37414;BMP280;23279;46.472;30.760;2023-05-09T06:26:56;78941.63;;;-146.33
37414;BMP280;23279;46.472;30.760;2023-05-09T06:29:22;78939.59;;;-146.33
37414;BMP280;23279;46.472;30.760;2023-05-09T06:31:47;78947.75;;;-146.33
37414;BMP280;23279;46.472;30.760;2023-05-09T06:34:13;78951.81;;;-146.33
37414;BMP280;23279;46.472;30.760;2023-05-09T06:36:38;78955.88;;;-146.33
37414;BMP280;23279;46.472;30.760;2023-05-09T06:39:03;78972.16;;;-146.33
37414;BMP280;23279;46.472;30.760;2023-05-09T06:41:29;78964.03;;;-146.33
37414;BMP280;23279;46.472;30.760;2023-05-09T06:43:54;78959.94;;;-146.33
37414;BMP280;23279;46.472;30.760;2023-05-09T06:46:20;78947.75;;;-146.33
37414;BMP280;23279;46.472;30.760;2023-05-09T06:48:45;78947.75;;;-146.33
37414;BMP280;23279;46.472;30.760;2023-05-09T06:51:11;78929.41;;;-146.33
37414;BMP280;23279;46.472;30.760;2023-05-09T06:53:36;78951.81;;;-146.33
37414;BMP280;23279;46.472;30.760;2023-05-09T06:56:02;78976.25;;;-146.33
37414;BMP280;23279;46.472;30.760;2023-05-09T06:58:28;78976.25;;;-146.33
37414;BMP280;23279;46.472;30.760;2023-05-09T07:00:53;78972.16;;;-146.33
37414;BMP280;23279;46.472;30.760;2023-05-09T07:03:19;78984.38;;;-146.33
37414;BMP280;23279;46.472;30.760;2023-05-09T07:05:44;78988.44;;;-146.33
37414;BMP280;23279;46.472;30.760;2023-05-09T07:08:10;79000.66;;;-146.33
37414;BMP280;23279;46.472;30.760;2023-05-09T07:10:35;79000.66;;;-146.33
37414;BMP280;23279;46.472;30.760;2023-05-09T07:13:02;78988.44;;;-146.33
37414;BMP280;23279;46.472;30.760;2023-05-09T07:15:27;79031.19;;;-146.33
37414;BMP280;23279;46.472;30.760;2023-05-09T07:17:53;79010.84;;;-146.33
37414;BMP280;23279;46.472;30.760;2023-05-09T07:20:18;78984.38;;;-146.33
37414;BMP280;23279;46.472;30.760;2023-05-09T07:22:44;78972.16;;;-146.33
37414;BMP280;23279;46.472;30.760;2023-05-09T07:25:09;78988.44;;;-146.33
37414;BMP280;23279;46.472;30.760;2023-05-09T07:27:35;78986.41;;;-146.33
37414;BMP280;23279;46.472;30.760;2023-05-09T07:30:05;78986.41;;;-146.33
37414;BMP280;23279;46.472;30.760;2023-05-09T07:32:31;78998.63;;;-146.33
37414;BMP280;23279;46.472;30.760;2023-05-09T07:34:57;78980.31;;;-146.33
37414;BMP280;23279;46.472;30.760;2023-05-09T07:37:22;78976.25;;;-146.33
37414;BMP280;23279;46.472;30.760;2023-05-09T07:39:48;78974.19;;;-146.33
37414;BMP280;23279;46.472;30.760;2023-05-09T07:42:14;78980.31;;;-146.33
37414;BMP280;23279;46.472;30.760;2023-05-09T07:44:40;78982.34;;;-146.33
37414;BMP280;23279;46.472;30.760;2023-05-09T07:47:06;78972.16;;;-146.33
37414;BMP280;23279;46.472;30.760;2023-05-09T07:49:33;78976.25;;;-146.33
37414;BMP280;23279;46.472;30.760;2023-05-09T07:51:59;78986.41;;;-146.33
37414;BMP280;23279;46.472;30.760;2023-05-09T07:54:24;78972.16;;;-146.33
37414;BMP280;23279;46.472;30.760;2023-05-09T07:56:50;78949.78;;;-146.33
37414;BMP280;23279;46.472;30.760;2023-05-09T07:59:16;78955.88;;;-146.33
37414;BMP280;23279;46.472;30.760;2023-05-09T08:01:42;78972.16;;;-146.33
37414;BMP280;23279;46.472;30.760;2023-05-09T08:04:07;78986.41;;;-146.33
37414;BMP280;23279;46.472;30.760;2023-05-09T08:06:34;78984.38;;;-146.33
37414;BMP280;23279;46.472;30.760;2023-05-09T08:08:59;79000.66;;;-146.33
37414;BMP280;23279;46.472;30.760;2023-05-09T08:11:25;78998.63;;;-146.33
37414;BMP280;23279;46.472;30.760;2023-05-09T08:13:50;78998.63;;;-146.33
37414;BMP280;23279;46.472;30.760;2023-05-09T08:16:16;78994.56;;;-146.33
37414;BMP280;23279;46.472;30.760;2023-05-09T08:18:42;78974.19;;;-146.33
37414;BMP280;23279;46.472;30.760;2023-05-09T08:21:08;78996.59;;;-146.33
37414;BMP280;23279;46.472;30.760;2023-05-09T08:23:33;79010.84;;;-146.33
37414;BMP280;23279;46.472;30.760;2023-05-09T08:25:59;79039.34;;;-146.33
37414;BMP280;23279;46.472;30.760;2023-05-09T08:28:24;79059.69;;;-146.33
37414;BMP280;23279;46.472;30.760;2023-05-09T08:30:53;79045.44;;;-146.33
37414;BMP280;23279;46.472;30.760;2023-05-09T08:33:19;79063.78;;;-146.33
37414;BMP280;23279;46.472;30.760;2023-05-09T08:35:49;79025.09;;;-146.33
37414;BMP280;23279;46.472;30.760;2023-05-09T08:38:14;79023.06;;;-146.33
37414;BMP280;23279;46.472;30.760;2023-05-09T08:40:40;79025.09;;;-146.33
37414;BMP280;23279;46.472;30.760;2023-05-09T08:43:06;79023.06;;;-146.33
37414;BMP280;23279;46.472;30.760;2023-05-09T08:45:35;79037.31;;;-146.33
37414;BMP280;23279;46.472;30.760;2023-05-09T08:48:02;79037.31;;;-146.33
37414;BMP280;23279;46.472;30.760;2023-05-09T08:50:28;79006.78;;;-146.33
37414;BMP280;23279;46.472;30.760;2023-05-09T08:52:53;79008.81;;;-146.33
37414;BMP280;23279;46.472;30.760;2023-05-09T08:55:19;78978.28;;;-146.33
37414;BMP280;23279;46.472;30.760;2023-05-09T08:57:45;78978.28;;;-146.33
37414;BMP280;23279;46.472;30.760;2023-05-09T09:00:11;78984.38;;;-146.33
37414;BMP280;23279;46.472;30.760;2023-05-09T09:02:40;78992.53;;;-146.33
37414;BMP280;23279;46.472;30.760;2023-05-09T09:05:06;79006.78;;;-146.33
37414;BMP280;23279;46.472;30.760;2023-05-09T09:07:35;79025.09;;;-146.33
37414;BMP280;23279;46.472;30.760;2023-05-09T09:10:03;79004.75;;;-146.33
37414;BMP280;23279;46.472;30.760;2023-05-09T09:12:30;78992.53;;;-146.33
37414;BMP280;23279;46.472;30.760;2023-05-09T09:15:03;78972.16;;;-146.33
37414;BMP280;23279;46.472;30.760;2023-05-09T09:17:30;78988.44;;;-146.33
37414;BMP280;23279;46.472;30.760;2023-05-09T09:19:59;78996.59;;;-146.33
37414;BMP280;23279;46.472;30.760;2023-05-09T09:22:31;78986.41;;;-146.33
37414;BMP280;23279;46.472;30.760;2023-05-09T09:25:01;78994.56;;;-146.33
37414;BMP280;23279;46.472;30.760;2023-05-09T09:27:28;78953.84;;;-146.33
37414;BMP280;23279;46.472;30.760;2023-05-09T09:29:53;78915.16;;;-146.33
37414;BMP280;23279;46.472;30.760;2023-05-09T09:32:19;78884.63;;;-146.33
37414;BMP280;23279;46.472;30.760;2023-05-09T09:34:48;78841.88;;;-146.33
37414;BMP280;23279;46.472;30.760;2023-05-09T09:37:21;78845.97;;;-146.33
37414;BMP280;23279;46.472;30.760;2023-05-09T09:39:56;78835.78;;;-146.33
37414;BMP280;23279;46.472;30.760;2023-05-09T09:42:22;78827.66;;;-146.33
37414;BMP280;23279;46.472;30.760;2023-05-09T09:45:08;78821.53;;;-146.33
37414;BMP280;23279;46.472;30.760;2023-05-09T09:47:34;78813.41;;;-146.33
37414;BMP280;23279;46.472;30.760;2023-05-09T09:50:09;78768.63;;;-146.33
37414;BMP280;23279;46.472;30.760;2023-05-09T09:52:35;78731.97;;;-146.33
37414;BMP280;23279;46.472;30.760;2023-05-09T09:55:00;78707.56;;;-146.33
37414;BMP280;23279;46.472;30.760;2023-05-09T09:57:33;78727.91;;;-146.33
37414;BMP280;23279;46.472;30.760;2023-05-09T10:00:00;78715.69;;;-146.33
37414;BMP280;23279;46.472;30.760;2023-05-09T10:02:25;78727.91;;;-146.33
37414;BMP280;23279;46.472;30.760;2023-05-09T10:04:51;78721.81;;;-146.33
37414;BMP280;23279;46.472;30.760;2023-05-09T10:07:18;78756.41;;;-146.33
37414;BMP280;23279;46.472;30.760;2023-05-09T10:09:46;78746.22;;;-146.33
37414;BMP280;23279;46.472;30.760;2023-05-09T10:12:13;78742.16;;;-146.33
37414;BMP280;23279;46.472;30.760;2023-05-09T10:14:43;78803.22;;;-146.33
37414;BMP280;23279;46.472;30.760;2023-05-09T10:17:12;78823.56;;;-146.33
37414;BMP280;23279;46.472;30.760;2023-05-09T10:19:43;78823.56;;;-146.33
37414;BMP280;23279;46.472;30.760;2023-05-09T10:22:11;78833.75;;;-146.33
37414;BMP280;23279;46.472;30.760;2023-05-09T10:25:02;78825.59;;;-146.33
37414;BMP280;23279;46.472;30.760;2023-05-09T10:27:31;78811.34;;;-146.33
37414;BMP280;23279;46.472;30.760;2023-05-09T10:30:05;78809.31;;;-146.33
37414;BMP280;23279;46.472;30.760;2023-05-09T10:32:42;78815.44;;;-146.33
37414;BMP280;23279;46.472;30.760;2023-05-09T10:35:10;78821.53;;;-146.33
37414;BMP280;23279;46.472;30.760;2023-05-09T10:37:38;78782.88;;;-146.33
37414;BMP280;23279;46.472;30.760;2023-05-09T10:40:04;78764.53;;;-146.33
37414;BMP280;23279;46.472;30.760;2023-05-09T10:42:30;78731.97;;;-146.33
37414;BMP280;23279;46.472;30.760;2023-05-09T10:44:56;78723.84;;;-146.33
37414;BMP280;23279;46.472;30.760;2023-05-09T10:47:24;78738.09;;;-146.33
37414;BMP280;23279;46.472;30.760;2023-05-09T10:49:52;78723.84;;;-146.33
37414;BMP280;23279;46.472;30.760;2023-05-09T10:52:21;78715.69;;;-146.33
37414;BMP280;23279;46.472;30.760;2023-05-09T10:55:01;78736.03;;;-146.33
37414;BMP280;23279;46.472;30.760;2023-05-09T10:57:29;78721.81;;;-146.33
37414;BMP280;23279;46.472;30.760;2023-05-09T10:59:55;78731.97;;;-146.33
37414;BMP280;23279;46.472;30.760;2023-05-09T11:02:21;78797.09;;;-146.33
37414;BMP280;23279;46.472;30.760;2023-05-09T11:05:12;78756.41;;;-146.33
37414;BMP280;23279;46.472;30.760;2023-05-09T11:07:38;78778.78;;;-146.33
37414;BMP280;23279;46.472;30.760;2023-05-09T11:10:08;78717.72;;;-146.33
37414;BMP280;23279;46.472;30.760;2023-05-09T11:12:52;78778.78;;;-146.33
37414;BMP280;23279;46.472;30.760;2023-05-09T11:15:17;78770.66;;;-146.33
37414;BMP280;23279;46.472;30.760;2023-05-09T11:17:43;78770.66;;;-146.33
37414;BMP280;23279;46.472;30.760;2023-05-09T11:20:09;78784.91;;;-146.33
37414;BMP280;23279;46.472;30.760;2023-05-09T11:25:07;78772.69;;;-146.33
37414;BMP280;23279;46.472;30.760;2023-05-09T11:27:43;78711.63;;;-146.33
37414;BMP280;23279;46.472;30.760;2023-05-09T11:30:10;78738.09;;;-146.33
37414;BMP280;23279;46.472;30.760;2023-05-09T11:32:41;78713.66;;;-146.33
37414;BMP280;23279;46.472;30.760;2023-05-09T11:35:12;78729.94;;;-146.33
37414;BMP280;23279;46.472;30.760;2023-05-09T11:37:58;78754.38;;;-146.33
37414;BMP280;23279;46.472;30.760;2023-05-09T11:40:25;78703.47;;;-146.33
37414;BMP280;23279;46.472;30.760;2023-05-09T11:42:53;78689.22;;;-146.33
37414;BMP280;23279;46.472;30.760;2023-05-09T11:45:21;78662.78;;;-146.33
37414;BMP280;23279;46.472;30.760;2023-05-09T11:47:47;78609.84;;;-146.33
37414;BMP280;23279;46.472;30.760;2023-05-09T11:50:14;78622.06;;;-146.33
37414;BMP280;23279;46.472;30.760;2023-05-09T11:52:40;78618.00;;;-146.33
37414;BMP280;23279;46.472;30.760;2023-05-09T11:55:10;78622.06;;;-146.33
37414;BMP280;23279;46.472;30.760;2023-05-09T11:57:44;78605.78;;;-146.33
37414;BMP280;23279;46.472;30.760;2023-05-09T12:00:10;78601.72;;;-146.33
37414;BMP280;23279;46.472;30.760;2023-05-09T12:02:38;78618.00;;;-146.33
37414;BMP280;23279;46.472;30.760;2023-05-09T12:05:12;78599.69;;;-146.33
37414;BMP280;23279;46.472;30.760;2023-05-09T12:07:37;78628.16;;;-146.33
37414;BMP280;23279;46.472;30.760;2023-05-09T12:10:07;78634.28;;;-146.33
37414;BMP280;23279;46.472;30.760;2023-05-09T12:12:41;78672.94;;;-146.33
37414;BMP280;23279;46.472;30.760;2023-05-09T12:15:07;78715.69;;;-146.33
37414;BMP280;23279;46.472;30.760;2023-05-09T12:17:34;78764.53;;;-146.33
37414;BMP280;23279;46.472;30.760;2023-05-09T12:19:59;78750.28;;;-146.33
37414;BMP280;23279;46.472;30.760;2023-05-09T12:22:25;78736.03;;;-146.33
37414;BMP280;23279;46.472;30.760;2023-05-09T12:24:51;78744.19;;;-146.33
37414;BMP280;23279;46.472;30.760;2023-05-09T12:27:18;78746.22;;;-146.33
37414;BMP280;23279;46.472;30.760;2023-05-09T12:29:44;78760.47;;;-146.33
37414;BMP280;23279;46.472;30.760;2023-05-09T12:32:13;78793.03;;;-146.33
37414;BMP280;23279;46.472;30.760;2023-05-09T12:34:41;78809.31;;;-146.33
37414;BMP280;23279;46.472;30.760;2023-05-09T12:37:18;78819.50;;;-146.33
37414;BMP280;23279;46.472;30.760;2023-05-09T12:39:45;78852.06;;;-146.33
37414;BMP280;23279;46.472;30.760;2023-05-09T12:42:26;78870.38;;;-146.33
37414;BMP280;23279;46.472;30.760;2023-05-09T12:44:52;78860.22;;;-146.33
37414;BMP280;23279;46.472;30.760;2023-05-09T12:47:18;78845.97;;;-146.33
37414;BMP280;23279;46.472;30.760;2023-05-09T12:49:48;78813.41;;;-146.33
37414;BMP280;23279;46.472;30.760;2023-05-09T12:52:17;78782.88;;;-146.33
37414;BMP280;23279;46.472;30.760;2023-05-09T12:54:46;78776.75;;;-146.33
37414;BMP280;23279;46.472;30.760;2023-05-09T12:57:23;78776.75;;;-146.33
37414;BMP280;23279;46.472;30.760;2023-05-09T12:59:49;78776.75;;;-146.33
37414;BMP280;23279;46.472;30.760;2023-05-09T13:02:14;78801.19;;;-146.33
37414;BMP280;23279;46.472;30.760;2023-05-09T13:04:40;78786.94;;;-146.33
37414;BMP280;23279;46.472;30.760;2023-05-09T13:07:09;78793.03;;;-146.33
37414;BMP280;23279;46.472;30.760;2023-05-09T13:09:34;78811.34;;;-146.33
37414;BMP280;23279;46.472;30.760;2023-05-09T13:12:02;78809.31;;;-146.33
37414;BMP280;23279;46.472;30.760;2023-05-09T13:14:32;78793.03;;;-146.33
37414;BMP280;23279;46.472;30.760;2023-05-09T13:16:57;78774.72;;;-146.33
37414;BMP280;23279;46.472;30.760;2023-05-09T13:19:23;78774.72;;;-146.33
37414;BMP280;23279;46.472;30.760;2023-05-09T13:21:48;78740.13;;;-146.33
37414;BMP280;23279;46.472;30.760;2023-05-09T13:24:14;78727.91;;;-146.33
37414;BMP280;23279;46.472;30.760;2023-05-09T13:26:39;78721.81;;;-146.33
37414;BMP280;23279;46.472;30.760;2023-05-09T13:29:04;78740.13;;;-146.33
37414;BMP280;23279;46.472;30.760;2023-05-09T13:31:30;78731.97;;;-146.33
37414;BMP280;23279;46.472;30.760;2023-05-09T13:33:55;78756.41;;;-146.33
37414;BMP280;23279;46.472;30.760;2023-05-09T13:36:21;78762.50;;;-146.33
37414;BMP280;23279;46.472;30.760;2023-05-09T13:38:46;78780.81;;;-146.33
37414;BMP280;23279;46.472;30.760;2023-05-09T13:41:12;78788.97;;;-146.33
37414;BMP280;23279;46.472;30.760;2023-05-09T13:43:44;78793.03;;;-146.33
37414;BMP280;23279;46.472;30.760;2023-05-09T13:46:10;78793.03;;;-146.33